createdAt,value
2018-02-23T10:15:14.021Z,8.53
2018-02-23T10:15:42.782Z,8.30
2018-02-23T10:16:11.403Z,8.32
2018-02-23T10:16:40.576Z,8.77
2018-02-23T10:17:09.176Z,8.10
2018-02-23T10:17:37.778Z,8.13
2018-02-23T10:18:07.290Z,8.40
2018-02-23T10:18:53.555Z,7.70
2018-02-23T10:19:22.280Z,7.70
2018-02-23T10:30:12.763Z,7.28
2018-02-23T10:30:42.405Z,8.15
2018-02-23T10:31:11.379Z,8.05
2018-02-23T10:31:39.943Z,8.30
2018-02-23T10:32:08.573Z,8.45
2018-02-23T10:32:37.420Z,8.38
2018-02-23T10:33:06.240Z,8.63
2018-02-23T10:33:35.907Z,8.38
2018-02-23T10:34:04.727Z,9.00
2018-02-23T10:34:33.451Z,8.43
2018-02-23T10:35:03.022Z,8.32
2018-02-23T10:35:32.499Z,8.68
2018-02-23T10:36:01.856Z,8.10
2018-02-23T10:36:30.518Z,8.50
2018-02-23T10:36:59.155Z,8.38
2018-02-23T10:37:28.056Z,8.25
2018-02-23T10:37:57.668Z,8.15
2018-02-23T10:38:27.358Z,8.20
2018-02-23T10:38:56.776Z,8.57
2018-02-23T10:39:25.614Z,8.70
2018-02-23T10:39:54.468Z,8.75
2018-02-23T10:40:24.020Z,8.27
2018-02-23T10:40:53.591Z,8.30
2018-02-23T10:41:22.390Z,8.20
2018-02-23T10:41:51.108Z,7.90
2018-02-23T10:42:19.848Z,8.20
2018-02-23T10:42:48.664Z,8.60
2018-02-23T10:43:17.507Z,8.88
2018-02-23T10:43:46.382Z,8.15
2018-02-23T10:44:15.225Z,8.27
2018-02-23T10:44:44.715Z,8.50
2018-02-23T10:45:13.412Z,8.73
2018-02-23T10:45:42.217Z,8.85
2018-02-23T10:46:11.079Z,8.35
2018-02-23T10:46:40.421Z,8.27
2018-02-23T10:47:09.170Z,8.70
2018-02-23T10:47:38.584Z,8.35
2018-02-23T10:48:07.346Z,8.32
2018-02-23T10:48:36.132Z,8.70
2018-02-23T10:49:05.006Z,8.27
2018-02-23T10:49:33.845Z,8.40
2018-02-23T10:50:02.591Z,8.60
2018-02-23T10:50:31.162Z,8.20
2018-02-23T10:50:59.925Z,8.43
2018-02-23T10:51:28.671Z,8.75
2018-02-23T10:51:58.303Z,8.82
2018-02-23T10:52:27.035Z,8.63
2018-02-23T10:52:55.819Z,8.13
2018-02-23T10:53:24.431Z,8.80
2018-02-23T10:53:53.142Z,8.75
2018-02-23T10:54:21.870Z,8.40
2018-02-23T10:54:50.531Z,8.70
2018-02-23T10:55:19.378Z,8.87
2018-02-23T10:55:48.030Z,8.30
2018-02-23T10:56:16.778Z,8.75
2018-02-23T10:56:45.593Z,8.10
2018-02-23T10:57:14.257Z,8.60
2018-02-23T10:57:43.229Z,9.15
2018-02-23T10:58:12.766Z,8.57
2018-02-23T10:58:41.507Z,8.35
2018-02-23T10:59:10.414Z,8.80
2018-02-23T10:59:39.263Z,8.40
2018-02-23T11:00:08.876Z,8.90
2018-02-23T11:00:37.487Z,8.05
2018-02-23T11:01:06.332Z,8.38
2018-02-23T11:01:35.204Z,8.75
2018-02-23T11:02:04.194Z,8.82
2018-02-23T11:02:32.961Z,8.55
2018-02-23T11:03:01.765Z,8.48
2018-02-23T11:03:30.707Z,8.35
2018-02-23T11:03:59.577Z,8.55
2018-02-23T11:04:28.958Z,8.45
2018-02-23T11:04:57.610Z,8.57
2018-02-23T11:05:27.118Z,8.30
2018-02-23T11:05:55.919Z,9.45
2018-02-23T11:06:24.614Z,9.60
2018-02-23T11:06:53.555Z,8.98
2018-02-23T11:07:22.712Z,9.27
2018-02-23T11:07:52.625Z,9.38
2018-02-23T11:08:21.363Z,9.30
2018-02-23T11:08:50.793Z,8.98
2018-02-23T11:09:19.412Z,9.05
2018-02-23T11:09:48.170Z,9.23
2018-02-23T11:10:17.637Z,9.57
2018-02-23T11:10:46.448Z,9.38
2018-02-23T11:11:15.182Z,9.23
2018-02-23T11:11:44.022Z,9.20
2018-02-23T11:12:13.466Z,9.88
2018-02-23T11:12:42.134Z,9.80
2018-02-23T11:13:11.503Z,9.85
2018-02-23T11:13:40.272Z,9.88
2018-02-23T11:14:09.002Z,9.50
2018-02-23T11:14:37.699Z,9.02
2018-02-23T11:15:06.345Z,9.32
2018-02-23T11:15:36.008Z,9.20
2018-02-23T11:16:04.735Z,9.07
2018-02-23T11:16:34.977Z,8.75
2018-02-23T11:17:03.795Z,8.73
2018-02-23T11:17:33.371Z,9.05
2018-02-23T11:18:02.939Z,9.20
2018-02-23T11:18:31.729Z,9.65
2018-02-23T11:19:00.410Z,9.52
2018-02-23T11:19:29.089Z,9.27
2018-02-23T11:19:57.862Z,9.25
2018-02-23T11:20:26.606Z,9.32
2018-02-23T11:20:55.289Z,9.60
2018-02-23T11:21:30.851Z,10.00
2018-02-23T11:22:00.402Z,9.75
2018-02-23T11:22:29.278Z,9.68
2018-02-23T11:22:58.033Z,9.63
2018-02-23T11:23:26.771Z,10.10
2018-02-23T11:23:55.619Z,9.55
2018-02-23T11:24:24.464Z,9.82
2018-02-23T11:24:53.310Z,9.45
2018-02-23T11:25:22.987Z,9.35
2018-02-23T11:25:51.909Z,9.40
2018-02-23T11:26:20.735Z,9.45
2018-02-23T11:26:49.479Z,9.07
2018-02-23T11:27:18.117Z,9.50
2018-02-23T11:27:47.061Z,10.32
2018-02-23T11:28:15.768Z,9.95
2018-02-23T11:28:44.561Z,10.55
2018-02-23T11:29:13.054Z,10.25
2018-02-23T11:29:41.610Z,10.13
2018-02-23T11:30:10.168Z,10.60
2018-02-23T11:30:39.569Z,10.82
2018-02-23T11:31:08.893Z,10.52
2018-02-23T11:31:37.647Z,10.95
2018-02-23T11:32:06.382Z,10.43
2018-02-23T11:32:35.182Z,10.65
2018-02-23T11:33:03.816Z,11.32
2018-02-23T11:33:32.482Z,11.10
2018-02-23T11:34:01.014Z,10.60
2018-02-23T11:34:30.458Z,11.20
2018-02-23T11:34:59.201Z,11.20
2018-02-23T11:35:27.871Z,11.40
2018-02-23T11:35:56.591Z,10.88
2018-02-23T11:36:25.334Z,11.25
2018-02-23T11:36:53.979Z,11.80
2018-02-23T11:37:22.554Z,11.90
2018-02-23T11:37:51.248Z,11.35
2018-02-23T11:38:19.890Z,11.88
2018-02-23T11:38:48.532Z,11.07
2018-02-23T11:39:17.187Z,11.23
2018-02-23T11:39:46.015Z,11.75
2018-02-23T11:40:15.500Z,11.02
2018-02-23T11:40:44.062Z,11.20
2018-02-23T11:41:12.638Z,12.00
2018-02-23T11:41:41.298Z,11.27
2018-02-23T11:42:09.801Z,11.55
2018-02-23T11:42:38.392Z,11.68
2018-02-23T11:43:07.693Z,11.55
2018-02-23T11:43:36.238Z,12.75
2018-02-23T11:44:04.777Z,12.05
2018-02-23T11:44:33.354Z,12.15
2018-02-23T11:45:02.166Z,11.65
2018-02-23T11:45:30.713Z,12.43
2018-02-23T11:45:59.271Z,11.88
2018-02-23T11:46:28.127Z,11.10
2018-02-23T11:46:56.602Z,11.40
2018-02-23T11:47:25.231Z,11.35
2018-02-23T11:47:54.049Z,11.65
2018-02-23T11:48:23.517Z,10.70
2018-02-23T11:48:52.909Z,10.68
2018-02-23T11:49:21.702Z,10.65
2018-02-23T11:49:50.482Z,10.77
2018-02-23T11:50:19.257Z,11.23
2018-02-23T11:50:48.521Z,11.35
2018-02-23T11:51:17.116Z,10.88
2018-02-23T11:51:45.714Z,10.93
2018-02-23T11:52:14.447Z,11.00
2018-02-23T11:52:43.185Z,10.77
2018-02-23T11:53:13.253Z,11.50
2018-02-23T11:53:42.139Z,11.43
2018-02-23T11:54:10.977Z,11.68
2018-02-23T11:54:39.822Z,11.43
2018-02-23T11:55:09.106Z,11.73
2018-02-23T11:55:37.890Z,11.73
2018-02-23T11:56:07.506Z,10.77
2018-02-23T11:56:36.294Z,11.38
2018-02-23T11:57:05.820Z,10.98
2018-02-23T11:57:40.671Z,12.50
2018-02-23T11:58:09.506Z,11.35
2018-02-23T11:58:38.479Z,11.00
2018-02-23T11:59:07.165Z,11.18
2018-02-23T11:59:35.823Z,11.48
2018-02-23T12:00:04.459Z,11.82
2018-02-23T12:00:33.130Z,11.85
2018-02-23T12:01:01.887Z,11.57
2018-02-23T12:01:30.742Z,10.95
2018-02-23T12:01:59.493Z,12.07
2018-02-23T12:02:28.238Z,10.90
2018-02-23T12:02:56.871Z,11.63
2018-02-23T12:03:25.674Z,11.40
2018-02-23T12:03:55.282Z,11.85
2018-02-23T12:04:24.648Z,11.57
2018-02-23T12:04:53.278Z,11.30
2018-02-23T12:05:22.203Z,11.40
2018-02-23T12:05:50.882Z,11.90
2018-02-23T12:06:20.163Z,11.15
2018-02-23T12:06:49.091Z,11.23
2018-02-23T12:07:18.541Z,11.27
2018-02-23T12:07:47.897Z,11.55
2018-02-23T12:08:16.569Z,11.52
2018-02-23T12:08:45.200Z,11.25
2018-02-23T12:09:14.001Z,12.02
2018-02-23T12:09:42.666Z,11.48
2018-02-23T12:10:11.327Z,11.93
2018-02-23T12:10:40.091Z,11.73
2018-02-23T12:11:08.676Z,11.90
2018-02-23T12:11:37.343Z,12.48
2018-02-23T12:12:06.096Z,12.48
2018-02-23T12:12:34.826Z,12.20
2018-02-23T12:13:03.552Z,12.15
2018-02-23T12:13:32.258Z,11.38
2018-02-23T12:14:01.901Z,12.00
2018-02-23T12:14:30.465Z,12.75
2018-02-23T12:14:59.736Z,12.30
2018-02-23T12:15:28.474Z,12.52
2018-02-23T12:15:57.132Z,12.02
2018-02-23T12:16:25.995Z,11.90
2018-02-23T12:16:54.675Z,13.13
2018-02-23T12:17:23.469Z,12.07
2018-02-23T12:17:52.133Z,11.75
2018-02-23T12:18:21.474Z,11.52
2018-02-23T12:18:50.853Z,12.65
2018-02-23T12:19:19.585Z,12.55
2018-02-23T12:19:48.963Z,12.07
2018-02-23T12:20:18.508Z,11.88
2018-02-23T12:20:47.150Z,12.65
2018-02-23T12:21:15.724Z,12.95
2018-02-23T12:21:44.523Z,12.60
2018-02-23T12:22:13.071Z,12.57
2018-02-23T12:22:41.905Z,12.70
2018-02-23T12:23:10.760Z,12.93
2018-02-23T12:23:39.623Z,13.27
2018-02-23T12:24:08.444Z,12.40
2018-02-23T12:24:37.112Z,12.43
2018-02-23T12:25:05.927Z,13.30
2018-02-23T12:25:34.718Z,12.63
2018-02-23T12:26:03.359Z,14.95
2018-02-23T12:26:32.053Z,14.02
2018-02-23T12:27:00.950Z,14.30
2018-02-23T12:27:30.498Z,14.00
2018-02-23T12:27:59.351Z,12.75
2018-02-23T12:28:31.439Z,14.40
2018-02-23T12:29:00.842Z,14.32
2018-02-23T12:29:29.384Z,14.65
2018-02-23T12:29:58.371Z,14.13
2018-02-23T12:30:27.270Z,14.00
2018-02-23T12:30:56.014Z,13.43
2018-02-23T12:31:25.333Z,13.32
2018-02-23T12:31:54.205Z,13.88
2018-02-23T12:32:23.022Z,14.65
2018-02-23T12:32:51.722Z,14.00
2018-02-23T12:33:20.381Z,13.93
2018-02-23T12:33:49.082Z,14.10
2018-02-23T12:34:17.815Z,13.45
2018-02-23T12:34:46.410Z,13.95
2018-02-23T12:35:15.768Z,14.68
2018-02-23T12:35:44.331Z,14.13
2018-02-23T12:36:13.181Z,13.48
2018-02-23T12:36:41.897Z,13.88
2018-02-23T12:37:10.899Z,13.85
2018-02-23T12:37:39.758Z,14.05
2018-02-23T12:38:08.612Z,15.13
2018-02-23T12:38:38.913Z,14.45
2018-02-23T12:39:07.897Z,13.50
2018-02-23T12:39:37.406Z,13.57
2018-02-23T12:40:06.203Z,14.02
2018-02-23T12:40:35.066Z,14.30
2018-02-23T12:41:03.659Z,14.65
2018-02-23T12:41:32.309Z,14.95
2018-02-23T12:42:01.116Z,13.68
2018-02-23T12:42:29.709Z,14.45
2018-02-23T12:42:58.943Z,13.95
2018-02-23T12:43:27.793Z,13.65
2018-02-23T12:43:57.128Z,13.90
2018-02-23T12:44:26.809Z,13.93
2018-02-23T12:44:55.462Z,13.95
2018-02-23T12:45:24.165Z,13.82
2018-02-23T12:45:53.589Z,13.93
2018-02-23T12:46:22.333Z,13.00
2018-02-23T12:46:51.150Z,13.70
2018-02-23T12:47:21.245Z,13.27
2018-02-23T12:47:50.051Z,13.62
2018-02-23T12:48:18.741Z,13.45
2018-02-23T12:48:47.412Z,13.95
2018-02-23T12:49:16.667Z,13.60
2018-02-23T12:49:45.481Z,13.60
2018-02-23T12:50:14.238Z,14.15
2018-02-23T12:50:42.852Z,14.27
2018-02-23T12:51:11.531Z,13.77
2018-02-23T12:51:40.978Z,13.73
2018-02-23T12:52:09.771Z,13.85
2018-02-23T12:52:38.506Z,13.62
2018-02-23T12:53:07.085Z,13.55
2018-02-23T12:53:36.482Z,13.38
2018-02-23T12:54:05.239Z,13.98
2018-02-23T12:54:34.036Z,13.85
2018-02-23T12:55:02.609Z,13.50
2018-02-23T12:55:31.310Z,14.00
2018-02-23T12:56:01.554Z,12.93
2018-02-23T12:56:30.267Z,13.57
2018-02-23T12:56:59.208Z,13.80
2018-02-23T12:57:28.171Z,14.15
2018-02-23T12:57:56.914Z,13.70
2018-02-23T12:58:25.873Z,13.60
2018-02-23T12:58:54.672Z,13.68
2018-02-23T12:59:24.258Z,13.68
2018-02-23T12:59:53.081Z,13.88
2018-02-23T13:00:21.620Z,13.60
2018-02-23T13:00:50.404Z,13.77
2018-02-23T13:01:19.191Z,14.02
2018-02-23T13:01:48.690Z,13.57
2018-02-23T13:02:17.393Z,13.27
2018-02-23T13:02:45.983Z,13.35
2018-02-23T13:03:14.736Z,13.50
2018-02-23T13:03:43.605Z,13.62
2018-02-23T13:04:12.425Z,13.77
2018-02-23T13:04:41.161Z,13.65
2018-02-23T13:05:10.842Z,13.60
2018-02-23T13:05:39.534Z,13.57
2018-02-23T13:06:08.416Z,13.60
2018-02-23T13:06:37.184Z,13.48
2018-02-23T13:07:06.762Z,13.90
2018-02-23T13:07:35.463Z,14.10
2018-02-23T13:08:04.390Z,13.52
2018-02-23T13:08:34.026Z,13.95
2018-02-23T13:09:02.683Z,13.43
2018-02-23T13:09:31.505Z,13.25
2018-02-23T13:10:00.414Z,13.13
2018-02-23T13:10:30.078Z,13.50
2018-02-23T13:10:58.959Z,13.65
2018-02-23T13:11:27.588Z,13.25
2018-02-23T13:11:56.291Z,12.80
2018-02-23T13:12:25.006Z,13.05
2018-02-23T13:12:54.650Z,13.02
2018-02-23T13:13:23.491Z,13.40
2018-02-23T13:13:55.146Z,13.10
2018-02-23T13:14:30.186Z,12.93
2018-02-23T13:15:05.831Z,13.07
2018-02-23T13:15:35.265Z,12.52
2018-02-23T13:16:04.031Z,12.65
2018-02-23T13:16:33.429Z,12.98
2018-02-23T13:17:02.303Z,13.10
2018-02-23T13:17:30.935Z,12.80
2018-02-23T13:17:59.620Z,12.67
2018-02-23T13:18:28.294Z,13.15
2018-02-23T13:18:57.063Z,12.75
2018-02-23T13:19:25.901Z,12.52
2018-02-23T13:19:54.608Z,12.98
2018-02-23T13:20:23.499Z,12.75
2018-02-23T13:20:52.196Z,12.93
2018-02-23T13:21:20.826Z,12.82
2018-02-23T13:21:49.498Z,11.98
2018-02-23T13:22:18.426Z,12.55
2018-02-23T13:22:47.902Z,12.85
2018-02-23T13:23:16.452Z,12.75
2018-02-23T13:23:45.948Z,12.18
2018-02-23T13:24:15.277Z,12.52
2018-02-23T13:24:44.050Z,12.68
2018-02-23T13:25:12.675Z,12.65
2018-02-23T13:25:41.503Z,12.63
2018-02-23T13:26:11.075Z,13.15
2018-02-23T13:26:39.735Z,12.57
2018-02-23T13:27:14.711Z,12.50
2018-02-23T13:28:01.330Z,12.68
2018-02-23T13:29:07.680Z,11.68
2018-02-23T13:29:36.328Z,12.55
2018-02-23T13:30:05.067Z,12.43
2018-02-23T13:30:33.694Z,12.18
2018-02-23T13:31:03.148Z,12.27
2018-02-23T13:31:31.935Z,12.32
2018-02-23T13:32:00.624Z,12.05
2018-02-23T13:32:29.565Z,11.93
2018-02-23T13:32:58.173Z,12.25
2018-02-23T13:33:27.864Z,11.95
2018-02-23T13:33:56.534Z,12.48
2018-02-23T13:34:25.194Z,12.27
2018-02-23T13:34:53.842Z,12.07
2018-02-23T13:35:23.242Z,12.07
2018-02-23T13:35:52.018Z,12.30
2018-02-23T13:36:21.560Z,11.63
2018-02-23T13:36:50.432Z,11.77
2018-02-23T13:37:19.121Z,11.90
2018-02-23T13:37:48.588Z,11.65
2018-02-23T13:38:17.268Z,11.75
2018-02-23T13:38:46.073Z,12.10
2018-02-23T13:39:14.861Z,11.63
2018-02-23T13:39:49.680Z,11.82
2018-02-23T13:40:18.455Z,11.98
2018-02-23T13:40:53.196Z,11.95
2018-02-23T13:41:29.697Z,12.50
2018-02-23T13:42:03.471Z,12.02
2018-02-23T13:42:32.559Z,12.18
2018-02-23T13:43:01.870Z,11.80
2018-02-23T13:43:30.586Z,12.20
2018-02-23T13:43:59.363Z,12.02
2018-02-23T13:44:28.097Z,11.88
2018-02-23T13:44:56.925Z,11.43
2018-02-23T13:45:25.706Z,12.35
2018-02-23T13:45:54.432Z,11.93
2018-02-23T13:46:23.250Z,11.93
2018-02-23T13:46:52.006Z,12.13
2018-02-23T13:47:20.972Z,11.73
2018-02-23T13:47:49.670Z,11.60
2018-02-23T13:48:18.305Z,11.65
2018-02-23T13:48:54.742Z,11.82
2018-02-23T13:49:23.583Z,11.85
2018-02-23T13:50:07.169Z,11.60
2018-02-23T13:50:36.060Z,11.85
2018-02-23T13:51:04.649Z,12.20
2018-02-23T13:51:33.309Z,11.40
2018-02-23T13:52:02.221Z,11.93
2018-02-23T13:52:30.969Z,11.98
2018-02-23T13:52:59.794Z,11.95
2018-02-23T13:53:34.818Z,11.65
2018-02-23T13:54:09.838Z,12.18
2018-02-23T13:54:40.673Z,11.55
2018-02-23T13:55:09.266Z,11.73
2018-02-23T13:55:38.188Z,11.38
2018-02-23T13:56:06.899Z,11.73
2018-02-23T13:56:35.692Z,11.80
2018-02-23T13:57:04.350Z,11.85
2018-02-23T13:57:33.069Z,11.12
2018-02-23T13:58:01.875Z,11.25
2018-02-23T13:58:30.498Z,11.73
2018-02-23T13:58:59.290Z,11.60
2018-02-23T13:59:27.855Z,11.75
2018-02-23T13:59:56.808Z,11.85
2018-02-23T14:00:25.424Z,11.55
2018-02-23T14:00:54.008Z,11.80
2018-02-23T14:01:22.722Z,11.10
2018-02-23T14:01:52.066Z,11.50
2018-02-23T14:02:20.697Z,11.15
2018-02-23T14:02:49.418Z,11.48
2018-02-23T14:03:18.810Z,11.45
2018-02-23T14:03:47.451Z,11.82
2018-02-23T14:04:16.360Z,11.75
2018-02-23T14:04:45.169Z,11.35
2018-02-23T14:05:13.980Z,11.68
2018-02-23T14:05:44.491Z,11.80
2018-02-23T14:06:14.184Z,11.30
2018-02-23T14:06:47.363Z,11.50
2018-02-23T14:07:26.676Z,11.60
2018-02-23T14:07:55.407Z,11.68
2018-02-23T14:08:24.201Z,11.38
2018-02-23T14:08:53.078Z,10.82
2018-02-23T14:09:22.659Z,10.93
2018-02-23T14:09:51.568Z,11.00
2018-02-23T14:10:20.274Z,10.73
2018-02-23T14:10:48.930Z,11.23
2018-02-23T14:11:17.729Z,11.05
2018-02-23T14:11:46.357Z,11.45
2018-02-23T14:12:15.210Z,11.38
2018-02-23T14:12:44.925Z,11.10
2018-02-23T14:13:13.708Z,11.75
2018-02-23T14:13:42.538Z,11.15
2018-02-23T14:14:11.187Z,10.57
2018-02-23T14:14:40.849Z,11.30
2018-02-23T14:15:09.718Z,11.57
2018-02-23T14:15:38.594Z,11.25
2018-02-23T14:16:07.379Z,11.55
2018-02-23T14:16:36.017Z,11.12
2018-02-23T14:17:04.960Z,11.27
2018-02-23T14:17:33.713Z,10.85
2018-02-23T14:18:02.345Z,11.20
2018-02-23T14:18:31.079Z,11.38
2018-02-23T14:18:59.911Z,11.00
2018-02-23T14:19:28.509Z,11.48
2018-02-23T14:19:57.392Z,11.60
2018-02-23T14:20:26.186Z,10.93
2018-02-23T14:20:54.893Z,10.52
2018-02-23T14:21:23.605Z,10.60
2018-02-23T14:21:52.331Z,10.93
2018-02-23T14:22:21.146Z,11.23
2018-02-23T14:22:50.044Z,11.07
2018-02-23T14:23:19.265Z,10.82
2018-02-23T14:23:48.769Z,10.55
2018-02-23T14:24:17.659Z,11.52
2018-02-23T14:24:46.397Z,11.48
2018-02-23T14:25:15.303Z,11.23
2018-02-23T14:25:44.137Z,11.10
2018-02-23T14:26:12.860Z,10.60
2018-02-23T14:26:41.650Z,11.23
2018-02-23T14:27:10.322Z,10.90
2018-02-23T14:27:39.037Z,10.70
2018-02-23T14:28:08.559Z,10.85
2018-02-23T14:28:37.143Z,11.00
2018-02-23T14:29:05.891Z,11.10
2018-02-23T14:29:34.557Z,10.75
2018-02-23T14:30:03.219Z,10.85
2018-02-23T14:30:32.060Z,10.98
2018-02-23T14:31:00.850Z,10.60
2018-02-23T14:31:29.707Z,10.57
2018-02-23T14:31:58.667Z,11.18
2018-02-23T14:32:27.516Z,10.90
2018-02-23T14:32:56.256Z,10.57
2018-02-23T14:33:25.574Z,11.07
2018-02-23T14:33:54.137Z,10.75
2018-02-23T14:34:22.590Z,11.05
2018-02-23T14:34:51.143Z,11.40
2018-02-23T14:35:19.872Z,10.90
2018-02-23T14:35:49.945Z,11.12
2018-02-23T14:36:18.546Z,10.32
2018-02-23T14:36:47.831Z,11.00
2018-02-23T14:37:16.379Z,11.60
2018-02-23T14:37:45.149Z,10.63
2018-02-23T14:38:13.643Z,11.30
2018-02-23T14:38:42.134Z,11.15
2018-02-23T14:39:10.762Z,11.35
2018-02-23T14:39:39.266Z,10.88
2018-02-23T14:40:07.781Z,10.90
2018-02-23T14:40:43.420Z,10.95
2018-02-23T14:41:12.155Z,10.70
2018-02-23T14:41:40.876Z,11.10
2018-02-23T14:42:09.543Z,10.75
2018-02-23T14:42:39.113Z,10.90
2018-02-23T14:43:08.657Z,10.73
2018-02-23T14:43:37.276Z,10.77
2018-02-23T14:44:06.966Z,11.05
2018-02-23T14:44:36.117Z,10.77
2018-02-23T14:45:04.872Z,10.70
2018-02-23T14:45:33.636Z,11.10
2018-02-23T14:46:02.512Z,11.00
2018-02-23T14:46:31.361Z,10.95
2018-02-23T14:47:00.776Z,10.85
2018-02-23T14:47:29.498Z,10.63
2018-02-23T14:47:58.309Z,10.82
2018-02-23T14:48:40.404Z,10.40
2018-02-23T14:49:19.623Z,10.93
2018-02-23T14:50:01.949Z,10.68
2018-02-23T14:50:43.896Z,10.73
2018-02-23T14:51:13.487Z,10.32
2018-02-23T14:51:42.239Z,10.98
2018-02-23T14:52:11.158Z,10.77
2018-02-23T14:52:40.756Z,10.70
2018-02-23T14:53:10.134Z,10.90
2018-02-23T14:53:38.741Z,10.57
2018-02-23T14:54:07.429Z,10.70
2018-02-23T14:54:36.138Z,10.23
2018-02-23T14:55:04.779Z,10.55
2018-02-23T14:55:33.632Z,10.60
2018-02-23T14:56:02.344Z,10.45
2018-02-23T14:56:31.150Z,10.80
2018-02-23T14:56:59.972Z,11.05
2018-02-23T14:57:30.532Z,10.45
2018-02-23T14:58:00.012Z,10.52
2018-02-23T14:58:30.245Z,10.77
2018-02-23T14:58:58.913Z,10.63
2018-02-23T14:59:28.405Z,10.68
2018-02-23T14:59:57.045Z,10.60
2018-02-23T15:00:26.679Z,10.75
2018-02-23T15:00:56.050Z,10.20
2018-02-23T15:01:25.438Z,10.57
2018-02-23T15:01:54.758Z,10.80
2018-02-23T15:02:23.791Z,10.38
2018-02-23T15:02:52.487Z,10.27
2018-02-23T15:03:21.131Z,10.30
2018-02-23T15:03:50.067Z,10.43
2018-02-23T15:04:18.832Z,10.50
2018-02-23T15:04:47.638Z,10.30
2018-02-23T15:05:16.164Z,10.60
2018-02-23T15:05:44.674Z,10.82
2018-02-23T15:06:13.459Z,10.63
2018-02-23T15:06:42.133Z,10.38
2018-02-23T15:07:10.782Z,10.63
2018-02-23T15:07:39.497Z,10.50
2018-02-23T15:08:08.211Z,10.55
2018-02-23T15:08:36.912Z,10.25
2018-02-23T15:09:05.534Z,10.70
2018-02-23T15:09:34.305Z,10.90
2018-02-23T15:10:03.166Z,10.50
2018-02-23T15:10:31.811Z,10.52
2018-02-23T15:11:00.686Z,9.88
2018-02-23T15:11:29.347Z,10.90
2018-02-23T15:11:58.171Z,10.52
2018-02-23T15:12:28.116Z,10.40
2018-02-23T15:12:57.174Z,10.50
2018-02-23T15:13:26.032Z,11.18
2018-02-23T15:13:54.910Z,10.38
2018-02-23T15:14:23.649Z,10.20
2018-02-23T15:14:52.474Z,10.30
2018-02-23T15:15:21.173Z,10.57
2018-02-23T15:15:49.869Z,10.27
2018-02-23T15:16:18.841Z,10.10
2018-02-23T15:16:47.579Z,9.88
2018-02-23T15:17:16.410Z,10.00
2018-02-23T15:17:45.220Z,10.10
2018-02-23T15:18:13.805Z,9.88
2018-02-23T15:18:43.437Z,10.07
2018-02-23T15:19:12.189Z,10.13
2018-02-23T15:19:41.887Z,10.73
2018-02-23T15:20:11.255Z,10.20
2018-02-23T15:20:41.004Z,10.73
2018-02-23T15:21:09.861Z,10.30
2018-02-23T15:21:38.509Z,10.82
2018-02-23T15:22:07.235Z,10.38
2018-02-23T15:22:36.757Z,9.82
2018-02-23T15:23:05.384Z,10.30
2018-02-23T15:23:34.206Z,10.35
2018-02-23T15:24:02.991Z,10.55
2018-02-23T15:24:31.705Z,10.48
2018-02-23T15:25:00.244Z,10.10
2018-02-23T15:25:29.054Z,10.55
2018-02-23T15:25:57.714Z,10.63
2018-02-23T15:26:26.410Z,10.20
2018-02-23T15:26:55.087Z,10.55
2018-02-23T15:27:23.795Z,10.07
2018-02-23T15:27:52.419Z,10.23
2018-02-23T15:28:21.074Z,10.25
2018-02-23T15:28:49.650Z,10.52
2018-02-23T15:29:18.230Z,10.73
2018-02-23T15:29:47.510Z,10.60
2018-02-23T15:30:28.806Z,10.25
2018-02-23T15:31:10.001Z,10.45
2018-02-23T15:31:50.878Z,10.38
2018-02-23T15:32:26.575Z,10.63
2018-02-23T15:32:55.985Z,10.95
2018-02-23T15:33:24.590Z,9.93
2018-02-23T15:33:53.107Z,10.40
2018-02-23T15:34:21.597Z,10.10
2018-02-23T15:34:50.933Z,10.27
2018-02-23T15:35:20.460Z,10.40
2018-02-23T15:35:49.183Z,10.20
2018-02-23T15:36:18.056Z,10.05
2018-02-23T15:36:46.742Z,10.48
2018-02-23T15:37:15.443Z,10.90
2018-02-23T15:37:44.184Z,10.10
2018-02-23T15:38:13.034Z,9.93
2018-02-23T15:38:41.695Z,10.38
2018-02-23T15:39:10.716Z,10.45
2018-02-23T15:39:39.446Z,10.45
2018-02-23T15:40:08.101Z,10.07
2018-02-23T15:40:36.878Z,10.30
2018-02-23T15:41:05.663Z,10.30
2018-02-23T15:41:41.509Z,10.48
2018-02-23T15:42:10.501Z,10.18
2018-02-23T15:42:39.865Z,10.77
2018-02-23T15:43:08.510Z,10.50
2018-02-23T15:43:37.206Z,9.98
2018-02-23T15:44:06.052Z,10.32
2018-02-23T15:44:34.783Z,10.52
2018-02-23T15:45:03.598Z,10.77
2018-02-23T15:45:32.422Z,10.20
2018-02-23T15:46:01.181Z,9.90
2018-02-23T15:46:30.709Z,10.50
2018-02-23T15:47:00.302Z,10.50
2018-02-23T15:47:35.088Z,10.30
2018-02-23T15:48:10.785Z,10.30
2018-02-23T15:48:42.326Z,10.00
2018-02-23T15:50:23.553Z,9.57
2018-02-23T15:50:58.402Z,10.00
2018-02-23T15:52:07.893Z,9.15
2018-02-23T15:52:36.734Z,10.65
2018-02-23T15:53:05.588Z,9.65
2018-02-23T15:53:35.163Z,10.13
2018-02-23T15:54:04.017Z,9.85
2018-02-23T15:54:32.940Z,10.00
2018-02-23T15:55:01.708Z,10.02
2018-02-23T15:55:31.265Z,9.90
2018-02-23T15:55:59.949Z,9.77
2018-02-23T15:56:28.710Z,10.23
2018-02-23T15:56:57.584Z,10.07
2018-02-23T15:57:27.399Z,10.15
2018-02-23T15:57:59.167Z,10.13
2018-02-23T15:58:39.426Z,9.65
2018-02-23T15:59:08.386Z,10.15
2018-02-23T15:59:37.086Z,10.25
2018-02-23T16:00:05.796Z,10.27
2018-02-23T16:00:34.602Z,9.90
2018-02-23T16:01:04.275Z,10.27
2018-02-23T16:01:33.476Z,10.00
2018-02-23T16:02:02.699Z,10.55
2018-02-23T16:02:31.603Z,10.73
2018-02-23T16:03:07.362Z,9.88
2018-02-23T16:03:36.158Z,10.07
2018-02-23T16:04:04.875Z,10.05
2018-02-23T16:04:33.671Z,10.23
2018-02-23T16:05:03.270Z,10.38
2018-02-23T16:05:32.115Z,10.25
2018-02-23T16:06:00.881Z,9.73
2018-02-23T16:06:30.338Z,10.02
2018-02-23T16:06:59.160Z,9.85
2018-02-23T16:07:28.702Z,9.68
2018-02-23T16:07:58.317Z,9.88
2018-02-23T16:08:27.115Z,10.20
2018-02-23T16:08:55.880Z,10.10
2018-02-23T16:09:24.568Z,9.80
2018-02-23T16:09:53.231Z,10.35
2018-02-23T16:10:21.874Z,10.15
2018-02-23T16:10:57.793Z,9.93
2018-02-23T16:11:26.450Z,9.93
2018-02-23T16:11:55.115Z,9.40
2018-02-23T16:12:23.866Z,10.05
2018-02-23T16:12:52.762Z,9.95
2018-02-23T16:13:21.552Z,9.90
2018-02-23T16:13:51.041Z,9.20
2018-02-23T16:14:20.027Z,9.73
2018-02-23T16:14:48.606Z,9.77
2018-02-23T16:15:17.439Z,10.10
2018-02-23T16:15:46.257Z,9.95
2018-02-23T16:16:15.158Z,9.68
2018-02-23T16:16:44.025Z,9.90
2018-02-23T16:17:12.967Z,9.55
2018-02-23T16:17:42.573Z,9.60
2018-02-23T16:18:11.193Z,9.80
2018-02-23T16:18:39.974Z,9.95
2018-02-23T16:19:08.728Z,9.85
2018-02-23T16:19:37.354Z,9.73
2018-02-23T16:20:06.022Z,10.02
2018-02-23T16:20:35.404Z,9.93
2018-02-23T16:21:04.131Z,10.07
2018-02-23T16:21:32.991Z,10.30
2018-02-23T16:22:01.630Z,10.00
2018-02-23T16:22:31.118Z,9.68
2018-02-23T16:23:00.724Z,10.10
2018-02-23T16:23:29.513Z,10.18
2018-02-23T16:23:58.230Z,9.88
2018-02-23T16:24:27.755Z,9.93
2018-02-23T16:24:56.514Z,9.75
2018-02-23T16:25:25.345Z,9.60
2018-02-23T16:25:53.958Z,10.02
2018-02-23T16:26:23.404Z,9.88
2018-02-23T16:26:52.097Z,10.35
2018-02-23T16:27:20.841Z,10.18
2018-02-23T16:27:49.802Z,9.98
2018-02-23T16:28:18.484Z,10.05
2018-02-23T16:28:47.994Z,10.57
2018-02-23T16:29:16.826Z,9.90
2018-02-23T16:29:45.565Z,9.98
2018-02-23T16:30:14.296Z,10.50
2018-02-23T16:30:42.892Z,10.10
2018-02-23T16:31:11.573Z,10.07
2018-02-23T16:31:40.135Z,10.07
2018-02-23T16:32:09.802Z,10.00
2018-02-23T16:32:39.367Z,10.18
2018-02-23T16:33:08.057Z,10.15
2018-02-23T16:33:36.873Z,10.02
2018-02-23T16:34:05.738Z,10.10
2018-02-23T16:34:34.431Z,9.77
2018-02-23T16:35:04.093Z,10.02
2018-02-23T16:35:33.526Z,10.20
2018-02-23T16:36:03.436Z,10.00
2018-02-23T16:36:32.186Z,10.15
2018-02-23T16:37:00.789Z,9.73
2018-02-23T16:37:29.440Z,9.95
2018-02-23T16:37:58.117Z,9.90
2018-02-23T16:38:26.806Z,9.93
2018-02-23T16:38:56.290Z,9.85
2018-02-23T16:39:25.218Z,9.40
2018-02-23T16:39:53.818Z,10.10
2018-02-23T16:40:22.559Z,10.27
2018-02-23T16:40:51.159Z,10.05
2018-02-23T16:41:19.942Z,10.13
2018-02-23T16:41:48.743Z,9.97
2018-02-23T16:42:17.578Z,10.55
2018-02-23T16:42:46.352Z,10.02
2018-02-23T16:43:15.044Z,9.77
2018-02-23T16:43:44.636Z,10.23
2018-02-23T16:44:13.432Z,10.07
2018-02-23T16:44:42.273Z,10.25
2018-02-23T16:45:11.868Z,10.23
2018-02-23T16:45:40.662Z,9.98
2018-02-23T16:46:09.315Z,10.25
2018-02-23T16:46:38.042Z,10.40
2018-02-23T16:47:07.338Z,10.63
2018-02-23T16:47:35.960Z,9.93
2018-02-23T16:48:04.563Z,10.13